Airfield :
LOGIN :

Register | Disclaimer

   EN    FR    IT 

 










Legend :    VFR   Marginal VFR   IFR   Intensive IFR   Very Intensive IFR
Visi :
Ceiling :
>= 8 km
>= 3000ft
5 to 8 km
1000 to 3000 ft
1500m to 5 km
500 to 1000 ft
800 to 1500m
200 to 500 ft
< 800m
< 200 ft
Symbols :   Thunderstorms  Fog  Heavy snow  Heavy precipitations  Wind > 20 kt
SIGMETs :     Misc.  Thunderstorms  Icing  Turbulence  Mountain Waves  Volcanic Ashes






- Airport Elevation : 319 ft


EIME - Casement Air Base

CURRENT METAR :
  • 200400Z 26017KT 7000 RA FEW010 SCT018 BKN035 08/07 Q0997

EXPIRED METARs :
  • 200300Z 22017KT 9999 -RA FEW013 BKN047 09/09 Q0998
  • 200200Z 21014KT 9999 -RA FEW014 BKN039 BKN070 09/08 Q0999

TAF TAF EIME
Valid from the 20 at 03:00 until the 20 at 12:00 UTC


200200Z 2003/2012 21018G28KT 9999 SCT012 BKN030
TEMPO 2003/2004 -RA BKN012
BECMG 2004/2006 30018G32KT
TEMPO 2004/2008 4000 RADZ BKN006
BECMG 2006/2008 27017G27KT
TEMPO 2011/2012 -SHRA SCT018CB



MET'MAP, your aeronautical weather chart ! - Copyright ORBIFLY December 2007 - Disclaimer

ORBIFLY MET'MAP TEAM :

Programming & Development : Alexandra Zaïnal
Concept & original design : Baudouin d'Aumeries
Assistance for programming : Marc-Olivier Méhu
Technical & hardware support : Manuel Goepfert

Contact : metmap@orbifly.com




SOURCES & CREDITS :

   NOAA